Time;durP1;ratioP1;P1;durP2;ratioP2;P2;SDS_P1;SDS_P2;PMS_P1;PMS_P2;Temp;Humidity;BMP_temperature;BMP_pressure;BME280_temperature;BME280_humidity;BME280_pressure;Samples;Min_cycle;Max_cycle;Signal;HPM_P1;HPM_P2
2023/11/02 00:01:53;;;;;;;3.50;3.20;;;13.90;99.90;;;;;;5054186;28;20809;-79
2023/11/02 00:04:29;;;;;;;3.53;3.23;;;13.90;99.90;;;;;;5053587;28;20467;-79
2023/11/02 00:06:57;;;;;;;3.63;3.20;;;13.90;99.90;;;;;;5052035;28;20490;-78
2023/11/02 00:09:39;;;;;;;10.70;3.10;;;13.90;99.90;;;;;;5050980;28;20471;-79
2023/11/02 00:12:11;;;;;;;4.10;3.77;;;13.90;99.90;;;;;;5052348;28;20507;-83
2023/11/02 00:14:44;;;;;;;5.70;2.70;;;13.80;99.90;;;;;;5054072;28;20501;-80
2023/11/02 00:17:48;;;;;;;3.73;3.13;;;13.80;99.90;;;;;;5053880;28;20491;-78
2023/11/02 00:20:33;;;;;;;4.20;2.60;;;13.80;99.90;;;;;;5053004;28;20812;-82
2023/11/02 00:23:04;;;;;;;4.53;3.73;;;13.80;99.90;;;;;;5054758;28;20652;-83
2023/11/02 00:25:49;;;;;;;5.97;3.13;;;13.90;99.90;;;;;;5054191;28;20450;-83
2023/11/02 00:28:16;;;;;;;3.50;2.50;;;13.90;99.90;;;;;;5054041;28;20469;-83
2023/11/02 00:30:48;;;;;;;2.50;2.30;;;13.90;99.90;;;;;;5054989;28;20463;-83
2023/11/02 00:33:17;;;;;;;4.53;2.40;;;13.90;99.90;;;;;;5058959;28;20466;-79
2023/11/02 00:35:46;;;;;;;4.80;2.50;;;13.90;99.90;;;;;;5053569;28;20547;-79
2023/11/02 00:38:20;;;;;;;5.10;2.97;;;13.90;99.90;;;;;;5053724;28;20481;-83
2023/11/02 00:40:48;;;;;;;6.27;2.80;;;13.90;99.90;;;;;;5054117;28;20495;-83
2023/11/02 00:43:15;;;;;;;2.60;2.20;;;13.90;99.90;;;;;;5054465;28;21023;-82
2023/11/02 00:45:44;;;;;;;2.77;2.37;;;14.00;99.90;;;;;;5054002;28;21001;-83
2023/11/02 00:48:24;;;;;;;3.10;2.30;;;14.00;99.90;;;;;;5052980;28;20562;-79
2023/11/02 00:51:14;;;;;;;3.30;2.93;;;14.00;99.90;;;;;;5054290;28;21000;-79
2023/11/02 00:53:45;;;;;;;5.10;2.70;;;14.00;99.90;;;;;;5052409;28;20475;-82
2023/11/02 00:56:14;;;;;;;3.23;2.00;;;14.00;99.90;;;;;;5044357;28;20469;-80
2023/11/02 00:58:46;;;;;;;3.37;2.20;;;14.00;99.90;;;;;;5054227;28;20471;-83
2023/11/02 01:01:15;;;;;;;3.50;2.70;;;14.00;99.90;;;;;;5054580;28;20479;-80
2023/11/02 01:03:48;;;;;;;2.67;2.40;;;14.00;99.90;;;;;;5052428;28;20475;-78
2023/11/02 01:06:19;;;;;;;3.73;2.70;;;14.00;99.90;;;;;;5053006;28;20474;-82
2023/11/02 01:08:52;;;;;;;4.37;3.30;;;13.90;99.90;;;;;;5053302;28;20471;-79
2023/11/02 01:11:28;;;;;;;3.63;2.90;;;13.90;99.90;;;;;;5053716;28;20523;-83
2023/11/02 01:13:57;;;;;;;6.43;3.93;;;13.90;99.90;;;;;;5053616;28;20467;-79
2023/11/02 01:16:27;;;;;;;3.40;3.10;;;13.90;99.90;;;;;;5053764;28;20493;-79
2023/11/02 01:18:57;;;;;;;3.07;2.87;;;13.90;99.90;;;;;;5039165;28;20468;-79
2023/11/02 01:21:27;;;;;;;3.93;3.50;;;13.90;99.90;;;;;;5034530;28;20530;-79
2023/11/02 01:24:07;;;;;;;4.50;4.10;;;13.80;99.90;;;;;;5032717;28;20496;-83
2023/11/02 01:27:02;;;;;;;7.03;4.77;;;13.90;99.90;;;;;;5033601;28;20559;-82
2023/11/02 01:29:31;;;;;;;8.60;5.23;;;13.90;99.90;;;;;;5031619;28;20502;-79
2023/11/02 01:32:03;;;;;;;6.57;4.00;;;13.90;99.90;;;;;;5036845;28;20460;-82
2023/11/02 01:34:33;;;;;;;5.50;3.40;;;13.90;99.90;;;;;;5053519;28;20456;-80
2023/11/02 01:37:08;;;;;;;3.93;3.40;;;13.90;99.90;;;;;;5052585;28;20463;-79
2023/11/02 01:40:03;;;;;;;3.70;2.60;;;13.80;99.90;;;;;;5052585;28;20462;-79
2023/11/02 01:42:43;;;;;;;5.67;3.10;;;13.80;99.90;;;;;;5043662;28;20463;-79
2023/11/02 01:45:16;;;;;;;2.13;1.93;;;13.80;99.90;;;;;;5049997;28;20475;-82
2023/11/02 01:48:01;;;;;;;4.27;2.90;;;13.80;99.90;;;;;;5052896;28;20491;-82
2023/11/02 01:50:45;;;;;;;2.30;2.10;;;13.80;99.90;;;;;;5052732;28;20463;-83
2023/11/02 01:53:38;;;;;;;5.33;2.37;;;13.80;99.90;;;;;;5053640;28;20482;-82
2023/11/02 01:56:18;;;;;;;3.70;2.33;;;13.80;99.90;;;;;;5053534;28;20497;-83
2023/11/02 01:58:59;;;;;;;3.40;2.13;;;13.80;99.90;;;;;;5053644;28;20259;-83
2023/11/02 02:01:32;;;;;;;2.40;2.20;;;13.80;99.90;;;;;;5053440;28;20502;-82
2023/11/02 02:04:06;;;;;;;2.37;2.17;;;13.80;99.90;;;;;;5052784;28;20459;-84
2023/11/02 02:06:47;;;;;;;3.00;2.27;;;13.80;99.90;;;;;;5052769;28;20467;-78
2023/11/02 02:09:27;;;;;;;3.27;3.00;;;13.80;99.90;;;;;;5053167;28;20865;-79
2023/11/02 02:12:00;;;;;;;2.40;2.20;;;13.80;99.90;;;;;;5053499;28;20494;-79
2023/11/02 02:14:39;;;;;;;2.63;2.43;;;13.80;99.90;;;;;;5038478;28;20985;-83
2023/11/02 02:17:20;;;;;;;2.75;2.55;;;13.80;99.90;;;;;;5032378;28;20474;-80
2023/11/02 02:20:00;;;;;;;2.73;2.50;;;13.80;99.90;;;;;;5035566;28;20229;-82
2023/11/02 02:22:34;;;;;;;3.67;3.38;;;13.80;99.90;;;;;;5035706;28;20557;-79
2023/11/02 02:25:12;;;;;;;3.40;3.10;;;13.80;99.90;;;;;;5036357;28;20230;-79
2023/11/02 02:27:58;;;;;;;3.60;2.97;;;13.80;99.90;;;;;;5037043;28;20463;-79
2023/11/02 02:31:02;;;;;;;3.20;2.60;;;13.70;99.90;;;;;;5035894;28;20462;-79
2023/11/02 02:34:13;;;;;;;2.90;2.60;;;13.70;99.90;;;;;;5036208;28;20594;-80
2023/11/02 02:36:50;;;;;;;3.40;2.53;;;13.70;99.90;;;;;;5034677;28;20475;-79
2023/11/02 02:39:22;;;;;;;2.97;2.57;;;13.70;99.90;;;;;;5034860;28;20570;-80
2023/11/02 02:41:56;;;;;;;3.50;2.77;;;13.70;99.90;;;;;;5035094;28;20854;-80
2023/11/02 02:44:25;;;;;;;7.53;2.97;;;13.60;99.90;;;;;;5034881;28;20495;-80
2023/11/02 02:46:54;;;;;;;5.90;2.60;;;13.60;99.90;;;;;;4996804;28;20446;-84
2023/11/02 02:49:23;;;;;;;5.10;2.80;;;13.60;99.90;;;;;;4996946;28;20494;-84
2023/11/02 02:51:54;;;;;;;5.80;2.70;;;13.60;99.90;;;;;;4996946;28;20500;-83
2023/11/02 02:54:25;;;;;;;2.40;2.20;;;13.60;99.90;;;;;;4996761;28;20462;-81
2023/11/02 02:56:54;;;;;;;2.90;2.40;;;13.60;99.90;;;;;;4996445;28;20841;-83
2023/11/02 02:59:23;;;;;;;2.70;2.50;;;13.60;99.90;;;;;;4988031;28;20472;-80
2023/11/02 03:01:53;;;;;;;3.10;2.40;;;13.60;99.90;;;;;;4994308;28;20466;-83
2023/11/02 03:04:22;;;;;;;4.37;2.80;;;13.60;99.90;;;;;;4996709;28;20474;-80
2023/11/02 03:06:54;;;;;;;2.87;2.57;;;13.50;99.90;;;;;;4995638;28;20998;-83
2023/11/02 03:09:24;;;;;;;4.17;2.70;;;13.50;99.90;;;;;;4995811;28;20474;-80
2023/11/02 03:11:56;;;;;;;3.40;3.10;;;13.50;99.90;;;;;;4996308;28;22842;-80
2023/11/02 03:14:25;;;;;;;6.13;3.13;;;13.40;99.90;;;;;;4996245;28;20846;-80
2023/11/02 03:16:56;;;;;;;4.43;2.23;;;13.40;99.90;;;;;;4996427;28;20484;-83
2023/11/02 03:19:43;;;;;;;3.20;2.53;;;13.30;99.90;;;;;;4996759;28;20803;-82
2023/11/02 03:22:15;;;;;;;2.60;2.40;;;13.30;99.90;;;;;;4996735;28;20246;-79
2023/11/02 03:25:06;;;;;;;2.40;2.20;;;13.30;99.90;;;;;;4995721;28;20470;-80
2023/11/02 03:27:44;;;;;;;2.30;2.10;;;13.30;99.90;;;;;;4995546;28;20813;-83
2023/11/02 03:30:18;;;;;;;2.85;2.30;;;13.30;99.90;;;;;;4996407;28;20968;-83
2023/11/02 03:32:54;;;;;;;3.10;2.43;;;13.20;99.90;;;;;;4996090;28;20713;-82
2023/11/02 03:35:27;;;;;;;3.63;2.33;;;13.20;99.90;;;;;;4995167;28;20555;-82
2023/11/02 03:38:04;;;;;;;2.57;2.37;;;13.20;99.90;;;;;;4996101;28;20548;-82
2023/11/02 03:40:39;;;;;;;2.47;1.70;;;13.20;99.90;;;;;;4995948;28;20470;-82
2023/11/02 03:43:10;;;;;;;2.60;2.33;;;13.10;99.90;;;;;;4995634;28;20473;-79
2023/11/02 03:46:01;;;;;;;2.25;2.08;;;13.10;99.90;;;;;;5014288;28;20234;-79
2023/11/02 03:48:37;;;;;;;3.17;2.85;;;13.10;99.90;;;;;;5034116;28;20256;-79
2023/11/02 03:51:24;;;;;;;3.70;2.40;;;13.10;99.90;;;;;;5034832;28;20228;-79
2023/11/02 03:54:03;;;;;;;3.20;1.90;;;13.10;99.90;;;;;;5034618;28;21310;-79
2023/11/02 03:56:41;;;;;;;3.30;2.30;;;13.10;99.90;;;;;;5034447;28;21034;-80
2023/11/02 03:59:17;;;;;;;3.23;2.60;;;13.00;99.90;;;;;;5034912;28;20484;-80
2023/11/02 04:01:53;;;;;;;2.17;1.90;;;13.00;99.90;;;;;;5034425;28;20559;-80
2023/11/02 04:04:30;;;;;;;2.80;2.03;;;13.00;99.90;;;;;;5034834;28;20980;-83
2023/11/02 04:07:03;;;;;;;8.95;2.75;;;13.00;99.90;;;;;;5033249;28;20311;-80
2023/11/02 04:09:39;;;;;;;3.47;2.33;;;12.90;99.90;;;;;;5034939;28;20221;-83
2023/11/02 04:12:19;;;;;;;3.75;2.00;;;12.90;99.90;;;;;;5035662;28;20256;-84
2023/11/02 04:14:59;;;;;;;3.17;2.22;;;12.90;99.90;;;;;;5034352;28;20225;-83
2023/11/02 04:17:27;;;;;;;4.47;3.10;;;12.90;99.90;;;;;;5034379;28;20740;-80
2023/11/02 04:19:54;;;;;;;5.90;2.28;;;12.80;99.90;;;;;;5034475;28;20313;-84
2023/11/02 04:22:21;;;;;;;3.35;1.83;;;12.80;99.90;;;;;;5033413;28;20253;-80
2023/11/02 04:24:54;;;;;;;2.50;2.28;;;12.80;99.90;;;;;;5024957;28;20229;-80
2023/11/02 04:27:24;;;;;;;2.50;2.30;;;12.80;99.90;;;;;;5034566;28;20229;-81
2023/11/02 04:29:57;;;;;;;2.95;2.30;;;12.70;99.90;;;;;;5029046;28;20561;-80
2023/11/02 04:32:23;;;;;;;3.00;1.85;;;12.80;99.90;;;;;;5034229;28;20587;-79
2023/11/02 04:34:50;;;;;;;2.50;2.30;;;12.70;99.90;;;;;;5033748;28;20241;-79
2023/11/02 04:37:23;;;;;;;3.10;1.80;;;12.70;99.90;;;;;;5033625;28;20464;-83
2023/11/02 04:39:52;;;;;;;1.95;1.70;;;12.70;99.90;;;;;;5032901;28;21015;-80
2023/11/02 04:42:21;;;;;;;2.67;2.47;;;12.70;99.90;;;;;;5032775;28;20420;-79
2023/11/02 04:44:48;;;;;;;4.27;2.03;;;12.70;99.90;;;;;;5033779;28;20237;-82
2023/11/02 04:47:18;;;;;;;2.50;2.05;;;12.70;99.90;;;;;;5032886;28;20903;-79
2023/11/02 04:49:45;;;;;;;2.95;2.08;;;12.70;99.90;;;;;;5034234;28;20618;-81
2023/11/02 04:52:13;;;;;;;2.67;1.60;;;12.60;99.90;;;;;;5033381;28;20256;-82
2023/11/02 04:54:40;;;;;;;5.38;2.58;;;12.60;99.90;;;;;;5032941;28;20686;-82
2023/11/02 04:57:10;;;;;;;3.00;1.97;;;12.60;99.90;;;;;;5032389;28;20225;-78
2023/11/02 04:59:42;;;;;;;3.40;1.95;;;12.60;99.90;;;;;;5032208;28;20504;-79
2023/11/02 05:02:10;;;;;;;2.22;2.03;;;12.60;99.90;;;;;;5033235;28;20244;-82
2023/11/02 05:04:37;;;;;;;4.00;2.30;;;12.60;99.90;;;;;;5033515;28;20295;-79
2023/11/02 05:07:05;;;;;;;2.55;2.20;;;12.60;99.90;;;;;;5033474;28;20240;-84
2023/11/02 05:09:31;;;;;;;3.55;2.28;;;12.60;99.90;;;;;;5034126;28;20222;-82
2023/11/02 05:11:58;;;;;;;2.67;2.00;;;12.60;99.90;;;;;;5033838;28;20567;-84
2023/11/02 05:14:27;;;;;;;4.50;2.65;;;12.60;99.90;;;;;;5033347;28;20303;-83
2023/11/02 05:16:53;;;;;;;2.85;2.20;;;12.50;99.90;;;;;;5033716;28;20252;-82
2023/11/02 05:19:20;;;;;;;3.75;2.33;;;12.50;99.90;;;;;;5033449;28;20233;-82
2023/11/02 05:21:47;;;;;;;3.45;2.10;;;12.50;99.90;;;;;;5034086;28;20228;-82
2023/11/02 05:24:15;;;;;;;2.80;2.15;;;12.50;99.90;;;;;;5032946;28;20229;-78
2023/11/02 05:26:42;;;;;;;3.08;2.30;;;12.50;99.90;;;;;;5033279;28;20240;-82
2023/11/02 05:29:09;;;;;;;3.75;2.95;;;12.40;99.90;;;;;;5033649;28;20251;-82
2023/11/02 05:31:37;;;;;;;7.72;2.90;;;12.40;99.90;;;;;;5035525;28;20225;-82
2023/11/02 05:34:05;;;;;;;2.35;2.15;;;12.40;99.90;;;;;;5034781;28;20698;-80
2023/11/02 05:36:32;;;;;;;4.68;2.60;;;12.40;99.90;;;;;;5032625;28;20680;-80
2023/11/02 05:39:02;;;;;;;2.08;1.92;;;12.40;99.90;;;;;;5037121;28;20221;-82
2023/11/02 05:41:31;;;;;;;5.55;2.50;;;12.40;99.90;;;;;;5031655;28;20226;-79
2023/11/02 05:43:58;;;;;;;3.35;2.50;;;12.30;99.90;;;;;;5036891;28;20312;-79
2023/11/02 05:46:25;;;;;;;5.25;2.85;;;12.30;99.90;;;;;;5034267;28;20279;-81
2023/11/02 05:48:53;;;;;;;4.20;2.50;;;12.30;99.90;;;;;;5026064;28;20229;-83
2023/11/02 05:51:20;;;;;;;4.65;2.67;;;12.30;99.90;;;;;;5033405;28;20308;-80
2023/11/02 05:53:47;;;;;;;5.25;2.40;;;12.30;99.90;;;;;;5033849;28;20292;-79
2023/11/02 05:56:15;;;;;;;10.38;2.72;;;12.30;99.90;;;;;;5037102;28;20233;-81
2023/11/02 05:58:42;;;;;;;2.80;2.42;;;12.30;99.90;;;;;;5037334;28;20752;-80
2023/11/02 06:01:09;;;;;;;4.80;2.55;;;12.30;99.90;;;;;;5037905;28;20296;-80
2023/11/02 06:03:36;;;;;;;4.13;2.55;;;12.30;99.90;;;;;;5037240;28;20249;-80
2023/11/02 06:06:06;;;;;;;5.72;2.83;;;12.30;99.90;;;;;;5037546;28;20217;-83
2023/11/02 06:08:43;;;;;;;4.43;2.40;;;12.30;99.90;;;;;;5037523;28;20217;-83
2023/11/02 06:11:10;;;;;;;2.65;2.45;;;12.30;99.90;;;;;;5036904;28;20282;-80
2023/11/02 06:13:37;;;;;;;4.72;2.78;;;12.30;99.90;;;;;;5036508;28;20737;-78
2023/11/02 06:16:05;;;;;;;6.35;3.00;;;12.30;99.90;;;;;;5037670;28;20299;-84
2023/11/02 06:18:32;;;;;;;6.47;2.63;;;12.20;99.90;;;;;;5038630;28;20709;-83
2023/11/02 06:21:02;;;;;;;4.85;2.40;;;12.20;99.90;;;;;;5037772;28;20544;-83
2023/11/02 06:23:30;;;;;;;7.07;3.25;;;12.20;99.90;;;;;;5037606;28;20236;-83
2023/11/02 06:26:06;;;;;;;3.10;2.80;;;12.20;99.90;;;;;;5037529;28;20249;-80
2023/11/02 06:28:34;;;;;;;4.85;3.03;;;12.10;99.90;;;;;;5035644;28;20753;-79
2023/11/02 06:31:01;;;;;;;4.93;3.05;;;12.10;99.90;;;;;;5036837;28;20675;-79
2023/11/02 06:33:31;;;;;;;3.72;3.42;;;12.10;99.90;;;;;;5036539;28;20229;-79
2023/11/02 06:35:58;;;;;;;4.55;2.58;;;12.20;99.90;;;;;;5036754;28;20229;-79
2023/11/02 06:38:25;;;;;;;3.50;2.53;;;12.20;99.90;;;;;;5035903;28;20241;-79
2023/11/02 06:40:53;;;;;;;5.93;4.05;;;12.20;99.90;;;;;;5036004;28;20226;-79
2023/11/02 06:43:20;;;;;;;3.63;2.95;;;12.20;99.90;;;;;;5036212;28;20260;-79
2023/11/02 06:45:47;;;;;;;3.20;2.83;;;12.10;99.90;;;;;;5035583;28;20222;-79
2023/11/02 06:48:14;;;;;;;3.20;2.47;;;12.10;99.90;;;;;;5036353;28;20296;-83
2023/11/02 06:50:43;;;;;;;3.90;2.20;;;12.10;99.90;;;;;;5036089;28;20319;-82
2023/11/02 06:53:10;;;;;;;4.38;2.95;;;12.10;99.90;;;;;;5036122;28;20232;-82
2023/11/02 06:55:39;;;;;;;9.18;2.90;;;12.20;99.90;;;;;;5035865;28;20308;-82
2023/11/02 06:58:07;;;;;;;5.05;3.42;;;12.10;99.90;;;;;;5036813;28;20536;-83
2023/11/02 07:00:37;;;;;;;4.25;3.67;;;12.10;99.90;;;;;;5035511;28;20225;-82
2023/11/02 07:03:11;;;;;;;7.70;4.32;;;12.10;99.90;;;;;;5034859;28;20248;-78
2023/11/02 07:05:38;;;;;;;3.35;2.67;;;12.10;99.90;;;;;;5034884;28;20249;-79
2023/11/02 07:08:05;;;;;;;4.28;2.95;;;12.10;99.90;;;;;;5036081;28;20225;-83
2023/11/02 07:10:32;;;;;;;4.13;3.10;;;12.10;99.90;;;;;;5040831;28;20631;-80
2023/11/02 07:12:59;;;;;;;3.10;2.90;;;12.10;99.90;;;;;;5035618;28;20245;-83
2023/11/02 07:15:28;;;;;;;4.75;3.10;;;12.10;99.90;;;;;;5036475;28;20579;-83
2023/11/02 07:17:58;;;;;;;6.30;3.33;;;12.10;99.90;;;;;;5025686;28;20335;-80
2023/11/02 07:20:25;;;;;;;5.32;3.58;;;12.10;99.90;;;;;;5048198;28;20226;-80
2023/11/02 07:22:52;;;;;;;6.57;3.50;;;12.10;99.90;;;;;;5034786;28;20296;-80
2023/11/02 07:25:19;;;;;;;9.02;3.58;;;12.10;99.90;;;;;;5034814;28;20248;-80
2023/11/02 07:27:47;;;;;;;5.20;3.17;;;12.10;99.90;;;;;;5034450;28;20233;-83
2023/11/02 07:30:14;;;;;;;3.60;3.30;;;12.10;99.90;;;;;;5035150;28;20544;-83
2023/11/02 07:32:46;;;;;;;3.75;2.72;;;12.10;99.90;;;;;;5035213;28;20675;-80
2023/11/02 07:35:12;;;;;;;4.20;2.85;;;12.20;99.90;;;;;;5034824;28;20229;-80
2023/11/02 07:37:39;;;;;;;5.00;3.72;;;12.20;99.90;;;;;;5035680;28;20715;-80
2023/11/02 07:40:08;;;;;;;5.80;3.20;;;12.30;99.90;;;;;;5034612;28;20229;-80
2023/11/02 07:42:35;;;;;;;3.25;2.70;;;12.30;99.90;;;;;;5035188;28;20225;-80
2023/11/02 07:45:02;;;;;;;8.02;3.00;;;12.40;99.90;;;;;;5034980;28;20242;-80
2023/11/02 07:47:29;;;;;;;7.47;3.05;;;12.40;99.90;;;;;;5034890;28;20221;-83
2023/11/02 07:49:57;;;;;;;3.45;3.08;;;12.50;99.90;;;;;;5034676;28;20245;-83
2023/11/02 07:52:24;;;;;;;4.23;3.10;;;12.50;99.90;;;;;;5020974;28;20317;-83
2023/11/02 07:54:51;;;;;;;5.13;3.72;;;12.50;99.90;;;;;;5034490;28;20468;-79
2023/11/02 07:57:18;;;;;;;4.00;3.30;;;12.50;99.90;;;;;;5034563;28;20264;-81
2023/11/02 07:59:45;;;;;;;3.70;3.40;;;12.50;99.90;;;;;;5033890;28;20747;-80
2023/11/02 08:02:14;;;;;;;5.43;3.28;;;12.60;99.90;;;;;;5034260;28;20474;-83
2023/11/02 08:04:41;;;;;;;5.90;3.60;;;12.70;99.90;;;;;;5033569;28;20324;-80
2023/11/02 08:07:09;;;;;;;9.40;3.20;;;12.70;99.90;;;;;;5034370;28;20288;-80
2023/11/02 08:09:37;;;;;;;5.90;2.70;;;12.70;99.90;;;;;;5032041;28;20479;-79
2023/11/02 08:12:05;;;;;;;3.15;2.85;;;12.70;99.90;;;;;;5041520;28;20235;-79
2023/11/02 08:14:32;;;;;;;3.97;3.07;;;12.80;99.90;;;;;;5034427;28;20679;-82
2023/11/02 08:16:59;;;;;;;4.63;2.65;;;12.90;99.90;;;;;;5031574;28;20464;-79
2023/11/02 08:19:27;;;;;;;3.30;3.00;;;12.90;99.90;;;;;;5034640;28;20252;-82
2023/11/02 08:22:00;;;;;;;4.47;2.80;;;13.00;99.90;;;;;;5035328;28;20495;-79
2023/11/02 08:24:28;;;;;;;2.93;2.63;;;13.00;99.90;;;;;;5034239;28;20640;-83
2023/11/02 08:26:55;;;;;;;4.27;2.70;;;13.10;99.90;;;;;;5033425;28;20460;-79
2023/11/02 08:29:23;;;;;;;5.45;3.05;;;13.10;99.90;;;;;;5033842;28;20537;-79
2023/11/02 08:31:50;;;;;;;4.03;2.60;;;13.10;99.90;;;;;;5025627;28;20229;-82
2023/11/02 08:34:17;;;;;;;4.00;2.80;;;13.10;99.90;;;;;;5034142;28;20463;-79
2023/11/02 08:36:44;;;;;;;4.40;2.90;;;13.10;99.90;;;;;;5033855;28;20522;-83
2023/11/02 08:39:12;;;;;;;4.88;2.47;;;13.10;99.90;;;;;;5033855;28;20291;-80
2023/11/02 08:41:41;;;;;;;4.28;3.28;;;13.20;99.90;;;;;;5032183;28;20233;-83
2023/11/02 08:44:09;;;;;;;5.22;3.20;;;13.10;99.90;;;;;;5033481;28;20221;-79
2023/11/02 08:46:36;;;;;;;3.73;2.57;;;13.10;99.90;;;;;;5025221;28;20295;-80
2023/11/02 08:49:04;;;;;;;4.70;2.77;;;13.10;99.90;;;;;;5033310;28;20506;-80
2023/11/02 08:51:32;;;;;;;2.80;2.60;;;13.10;99.90;;;;;;5033661;28;20482;-79
2023/11/02 08:54:01;;;;;;;3.08;2.60;;;13.20;99.90;;;;;;5033143;28;20476;-82
2023/11/02 08:56:28;;;;;;;2.40;2.20;;;13.20;99.90;;;;;;5032353;28;20236;-80
2023/11/02 08:58:56;;;;;;;5.57;2.40;;;13.20;99.90;;;;;;5033373;28;20229;-79
2023/11/02 09:01:24;;;;;;;3.00;2.73;;;13.20;99.90;;;;;;5033509;28;20224;-79
2023/11/02 09:03:53;;;;;;;4.72;3.38;;;13.30;99.90;;;;;;5033098;28;20468;-79
2023/11/02 09:06:21;;;;;;;3.38;2.58;;;13.30;99.90;;;;;;5033593;28;20558;-79
2023/11/02 09:08:56;;;;;;;3.40;2.80;;;13.30;99.90;;;;;;5031950;28;20587;-79
2023/11/02 09:11:28;;;;;;;2.30;2.10;;;13.40;99.90;;;;;;5033716;28;20467;-82
2023/11/02 09:13:56;;;;;;;5.20;2.78;;;13.30;99.90;;;;;;5033664;28;20486;-79
2023/11/02 09:16:26;;;;;;;10.90;3.70;;;13.40;99.90;;;;;;5034439;28;20627;-83
2023/11/02 09:18:54;;;;;;;7.03;3.00;;;13.40;99.90;;;;;;5024809;28;20519;-79
2023/11/02 09:21:22;;;;;;;3.00;2.80;;;13.40;99.90;;;;;;5025807;28;20494;-80
2023/11/02 09:23:48;;;;;;;3.75;3.42;;;13.50;99.90;;;;;;5033365;28;20788;-83
2023/11/02 09:26:18;;;;;;;4.43;3.03;;;13.50;99.90;;;;;;5032225;28;20320;-80
2023/11/02 09:28:45;;;;;;;3.90;2.40;;;13.50;99.90;;;;;;5027547;28;20478;-80
2023/11/02 09:31:17;;;;;;;3.33;2.20;;;13.60;99.90;;;;;;5037353;28;20467;-84
2023/11/02 09:33:44;;;;;;;6.90;2.50;;;13.60;99.90;;;;;;5039767;28;20498;-79
2023/11/02 09:36:11;;;;;;;2.70;2.07;;;13.70;99.90;;;;;;5036606;28;20958;-80
2023/11/02 09:38:56;;;;;;;4.50;2.27;;;13.60;99.90;;;;;;5037391;28;20829;-83
2023/11/02 09:41:23;;;;;;;3.17;2.67;;;13.70;99.90;;;;;;5036845;28;20460;-79
2023/11/02 09:43:50;;;;;;;3.80;2.40;;;13.70;99.90;;;;;;5038349;28;20473;-79
2023/11/02 09:46:19;;;;;;;3.10;2.20;;;13.80;99.90;;;;;;5039124;28;20475;-79
2023/11/02 09:48:46;;;;;;;2.40;2.20;;;13.70;99.90;;;;;;5042733;28;20494;-83
2023/11/02 09:51:16;;;;;;;3.93;2.93;;;13.80;99.90;;;;;;5028766;28;20482;-83
2023/11/02 09:53:43;;;;;;;2.87;2.57;;;13.80;99.90;;;;;;5040144;28;20970;-82
2023/11/02 09:56:10;;;;;;;2.30;2.10;;;13.90;99.90;;;;;;5039554;28;20476;-83
2023/11/02 09:58:39;;;;;;;4.00;3.03;;;14.00;99.90;;;;;;5039125;28;20452;-83
2023/11/02 10:01:09;;;;;;;3.07;2.77;;;14.10;99.90;;;;;;5045418;28;20448;-83
2023/11/02 10:03:42;;;;;;;5.53;2.53;;;14.20;99.90;;;;;;5041575;28;20976;-80
2023/11/02 10:06:42;;;;;;;6.53;3.57;;;14.30;99.90;;;;;;5036673;28;20476;-79
2023/11/02 10:09:17;;;;;;;2.73;2.17;;;14.30;99.90;;;;;;5026038;28;20464;-80
2023/11/02 10:11:44;;;;;;;2.53;2.00;;;14.30;99.90;;;;;;5036643;28;20482;-79
2023/11/02 10:14:11;;;;;;;2.73;2.47;;;14.40;99.90;;;;;;5036360;28;20807;-80
2023/11/02 10:16:38;;;;;;;3.17;2.00;;;14.40;99.90;;;;;;5037215;28;20546;-80
2023/11/02 10:19:12;;;;;;;3.63;3.20;;;14.40;99.90;;;;;;5033718;28;20875;-79
2023/11/02 10:25:25;;;;;;;4.00;2.30;;;14.40;99.90;;;;;;5034218;28;20479;-80
2023/11/02 10:27:53;;;;;;;2.20;1.97;;;14.50;99.90;;;;;;5027031;28;20494;-81
2023/11/02 10:30:22;;;;;;;2.53;2.07;;;14.40;99.90;;;;;;5035953;28;20486;-79
2023/11/02 10:32:49;;;;;;;2.57;2.37;;;14.50;99.90;;;;;;5035363;28;20499;-79
2023/11/02 10:35:18;;;;;;;6.03;2.20;;;14.60;99.90;;;;;;5035377;28;20480;-80
2023/11/02 10:37:50;;;;;;;2.00;1.80;;;14.60;99.90;;;;;;5036281;28;20479;-84
2023/11/02 10:40:21;;;;;;;3.03;2.30;;;14.70;99.90;;;;;;5035603;28;20538;-84
2023/11/02 10:43:00;;;;;;;3.17;2.23;;;14.70;99.90;;;;;;5036979;28;20479;-80
2023/11/02 10:45:27;;;;;;;1.93;1.77;;;14.70;99.90;;;;;;5037127;28;20495;-83
2023/11/02 10:47:55;;;;;;;2.37;2.10;;;14.70;99.90;;;;;;5037632;28;20478;-82
2023/11/02 10:50:25;;;;;;;2.50;2.03;;;14.80;99.90;;;;;;5043435;28;20529;-83
2023/11/02 10:52:57;;;;;;;1.87;1.73;;;14.80;99.90;;;;;;5043321;28;20467;-83
2023/11/02 10:55:28;;;;;;;2.30;1.80;;;14.80;99.90;;;;;;5038212;28;20472;-83
2023/11/02 10:57:56;;;;;;;1.83;1.73;;;14.90;99.90;;;;;;5037203;28;20530;-83
2023/11/02 11:00:23;;;;;;;2.57;2.10;;;14.80;99.90;;;;;;5037318;28;20942;-83
2023/11/02 11:02:51;;;;;;;4.73;2.50;;;14.90;99.90;;;;;;5035745;28;20483;-83
2023/11/02 11:05:19;;;;;;;1.80;1.50;;;14.90;99.90;;;;;;5036721;28;20496;-83
2023/11/02 11:08:02;;;;;;;3.10;1.73;;;14.90;99.90;;;;;;5036032;28;20997;-83
2023/11/02 11:10:32;;;;;;;2.60;1.83;;;15.00;99.90;;;;;;5037674;28;20492;-83
2023/11/02 11:13:06;;;;;;;2.33;1.60;;;15.00;99.90;;;;;;5036186;28;20930;-83
2023/11/02 11:15:33;;;;;;;2.20;1.60;;;14.90;99.90;;;;;;5036078;28;20491;-83
2023/11/02 11:18:05;;;;;;;2.50;1.73;;;14.90;99.90;;;;;;5035694;28;20772;-80
2023/11/02 11:20:33;;;;;;;1.83;1.60;;;15.00;99.90;;;;;;5035327;28;20472;-78
2023/11/02 11:23:04;;;;;;;2.60;2.00;;;15.00;99.90;;;;;;5034797;28;20552;-79
2023/11/02 11:25:31;;;;;;;3.87;1.70;;;15.00;99.90;;;;;;5034851;28;20551;-80
2023/11/02 11:27:58;;;;;;;2.77;1.93;;;15.00;99.90;;;;;;5035421;28;20483;-80
2023/11/02 11:30:37;;;;;;;2.10;1.57;;;15.00;99.90;;;;;;5034912;28;20476;-80
2023/11/02 11:33:04;;;;;;;2.10;1.90;;;15.00;99.90;;;;;;5035162;28;20444;-83
2023/11/02 11:35:34;;;;;;;3.53;1.50;;;15.00;99.90;;;;;;5035944;28;21012;-83
2023/11/02 11:38:03;;;;;;;2.30;2.10;;;15.00;99.90;;;;;;5037213;28;20476;-82
2023/11/02 11:40:36;;;;;;;2.47;1.60;;;15.10;99.90;;;;;;5042369;28;20472;-83
2023/11/02 11:43:12;;;;;;;2.43;2.20;;;15.00;99.90;;;;;;5035203;28;20539;-78
2023/11/02 11:45:49;;;;;;;2.93;2.10;;;15.00;99.90;;;;;;5034582;28;20476;-79
2023/11/02 11:48:35;;;;;;;3.53;2.00;;;15.00;99.90;;;;;;5034104;28;20467;-79
2023/11/02 11:51:23;;;;;;;2.30;1.70;;;15.00;99.90;;;;;;5032840;28;20495;-83
2023/11/02 11:54:13;;;;;;;3.87;1.70;;;15.10;99.90;;;;;;5038349;28;20858;-83
2023/11/02 11:56:41;;;;;;;2.10;1.90;;;15.10;99.90;;;;;;5035710;28;20972;-83
2023/11/02 11:59:08;;;;;;;2.07;1.80;;;15.20;99.90;;;;;;5035442;28;20484;-81
2023/11/02 12:01:36;;;;;;;2.60;2.40;;;15.10;99.90;;;;;;5034750;28;20468;-79
2023/11/02 12:04:04;;;;;;;2.33;2.00;;;15.20;99.90;;;;;;5034798;28;20548;-80
2023/11/02 12:06:38;;;;;;;2.80;2.50;;;15.30;99.90;;;;;;5036492;28;20487;-83
2023/11/02 12:09:13;;;;;;;2.40;1.60;;;15.30;99.90;;;;;;5036396;28;20566;-80
2023/11/02 12:11:44;;;;;;;2.73;2.13;;;15.30;99.90;;;;;;5035167;28;20472;-79
2023/11/02 12:14:20;;;;;;;4.23;1.93;;;15.30;99.90;;;;;;5026700;28;20574;-83
2023/11/02 12:16:51;;;;;;;3.93;2.40;;;15.30;99.90;;;;;;5034766;28;20533;-79
2023/11/02 12:19:22;;;;;;;3.17;1.87;;;15.30;99.90;;;;;;5033166;28;20487;-80
2023/11/02 12:21:56;;;;;;;3.03;2.20;;;15.40;99.90;;;;;;5034554;28;20657;-84
2023/11/02 12:24:23;;;;;;;4.33;2.00;;;15.30;99.90;;;;;;5034954;28;20546;-84
2023/11/02 12:27:09;;;;;;;3.27;1.70;;;15.30;99.90;;;;;;5035163;28;20541;-83
2023/11/02 12:29:36;;;;;;;2.30;1.70;;;15.40;99.90;;;;;;5035427;28;20467;-83
2023/11/02 12:32:07;;;;;;;2.40;2.00;;;15.50;99.90;;;;;;5033792;28;20797;-83
2023/11/02 12:34:45;;;;;;;2.43;2.20;;;15.40;99.90;;;;;;5035394;28;20465;-82
2023/11/02 12:37:12;;;;;;;2.20;1.90;;;15.50;99.90;;;;;;5033380;28;20499;-79
2023/11/02 12:39:48;;;;;;;3.00;2.80;;;15.40;99.90;;;;;;5035128;28;20471;-82
2023/11/02 12:42:17;;;;;;;2.23;2.00;;;15.50;99.90;;;;;;5035310;28;20452;-79
2023/11/02 12:44:45;;;;;;;4.83;2.20;;;15.50;99.90;;;;;;5034583;28;20939;-83
2023/11/02 12:47:12;;;;;;;2.40;2.20;;;15.50;99.90;;;;;;5035235;28;20491;-82
2023/11/02 12:49:39;;;;;;;3.67;2.10;;;15.50;99.90;;;;;;5035641;28;20533;-78
2023/11/02 12:52:09;;;;;;;3.03;2.33;;;15.40;99.90;;;;;;5033866;28;20854;-79
2023/11/02 12:54:37;;;;;;;3.70;2.63;;;15.50;99.90;;;;;;5033901;28;20527;-79
2023/11/02 12:57:05;;;;;;;2.20;1.67;;;15.40;99.90;;;;;;5034037;28;20472;-79
2023/11/02 12:59:41;;;;;;;4.87;2.10;;;15.40;99.90;;;;;;5033743;28;20586;-81
2023/11/02 13:02:11;;;;;;;6.17;2.10;;;15.40;99.90;;;;;;5033615;28;20475;-83
2023/11/02 13:04:49;;;;;;;3.37;2.10;;;15.40;99.90;;;;;;5034439;28;20477;-79
2023/11/02 13:07:23;;;;;;;3.93;3.40;;;15.40;99.90;;;;;;5032592;28;20525;-79
2023/11/02 13:10:03;;;;;;;2.27;2.00;;;15.40;99.90;;;;;;5033825;28;20464;-79
2023/11/02 13:12:30;;;;;;;3.50;3.20;;;15.40;99.90;;;;;;5033763;28;20538;-79